Sunbury, PA

10:22 AM EDT on October 01, 2016 (GMT -0400)
KPASUNBU2 | | Change Station

Elev 508 ft 40.86 °N, 76.78 °W | Updated 34 seconds ago

Overcast
Overcast
57.7 °F
Feels Like 57.7 °F
N
0.7
Wind Variable Wind from East
Gusts 5.4 mph

Today
High -- | Low -- °F
--% Chance of Precip.
Yesterday
High -- | Low -- °F
Precip. -- in
Pressure 30.20 in
Visibility 10.0 miles
Clouds Overcast 900 ft
Dew Point 2 °F
Humidity 10%
Rainfall 0.02 in
Snow Depth Not available.
7:04 AM 6:48 PM
New Moon, 0% visible
METAR KSEG 011353Z AUTO 32004KT 10SM OVC009 14/14 A3020 RMK AO2 RAE11 SLP225 P0001 T01390139 $
Pressure 30.20 in
Visibility 10.0 miles
Clouds Overcast 900 ft
Dew Point 2 °F
Humidity 10%
Rainfall 0.02 in
Snow Depth Not available.
7:04 AM 6:48 PM
New Moon, 0% visible
METAR KSEG 011353Z AUTO 32004KT 10SM OVC009 14/14 A3020 RMK AO2 RAE11 SLP225 P0001 T01390139 $

10-Day Weather Forecast

Almanac

Astronomy

Oct. 01, 2016 Rise Set
Actual Time
Civil Twilight
Nautical Twilight
Astronomical Twilight
Moon
Length of Visible Light
Length of Day
Tomorrow will be .
, % of the Moon is Illuminated

Today's Extremes

State Highs State Lows

Community

WunderPhotos

Upload Photos

1,942,937 photos uploaded!

WunderBlog® & News

Nearby

Air Quality

  Air Quality AQ Index Pollutant
Not available.

Snow Depth

Station Depth Elevation

Earthquake Activity

City Distance Mag. Time & Date
Minimum magnitude displayed is 2.5.

Coastal Water Temperatures

Place Temperature

Stations

Nearby Weather Stations

Station Location Temp. Windchill Dew Point Humidity Wind Precip. Elev Updated Type
                   

Watches & Warnings

There are currently no watches in effect.